sensor_id;sensor_type;location;lat;lon;timestamp;pressure;altitude;pressure_sealevel;temperature;humidity
47522;BME280;32291;52.010;4.446;2023-11-19T00:00:30;77589.66;;;-144.67;100.00
47522;BME280;32291;52.010;4.446;2023-11-19T00:01:37;77613.19;;;-144.67;100.00
47522;BME280;32291;52.010;4.446;2023-11-19T00:02:43;77613.19;;;-144.67;100.00
47522;BME280;32291;52.010;4.446;2023-11-19T00:03:50;77615.31;;;-144.67;100.00
47522;BME280;32291;52.010;4.446;2023-11-19T00:04:57;77606.75;;;-144.67;100.00
47522;BME280;32291;52.010;4.446;2023-11-19T00:06:05;77606.75;;;-144.67;100.00
47522;BME280;32291;52.010;4.446;2023-11-19T00:07:07;77619.63;;;-144.67;100.00
47522;BME280;32291;52.010;4.446;2023-11-19T00:08:14;77602.50;;;-144.67;100.00
47522;BME280;32291;52.010;4.446;2023-11-19T00:09:21;77619.63;;;-144.67;100.00
47522;BME280;32291;52.010;4.446;2023-11-19T00:10:27;77619.63;;;-144.67;100.00
47522;BME280;32291;52.010;4.446;2023-11-19T00:11:29;77619.63;;;-144.67;100.00
47522;BME280;32291;52.010;4.446;2023-11-19T00:12:39;77621.75;;;-144.67;100.00
47522;BME280;32291;52.010;4.446;2023-11-19T00:13:47;77634.59;;;-144.67;100.00
47522;BME280;32291;52.010;4.446;2023-11-19T00:14:49;77632.44;;;-144.67;100.00
47522;BME280;32291;52.010;4.446;2023-11-19T00:15:57;77641.00;;;-144.67;100.00
47522;BME280;32291;52.010;4.446;2023-11-19T00:17:03;77645.28;;;-144.67;100.00
47522;BME280;32291;52.010;4.446;2023-11-19T00:18:10;77641.00;;;-144.67;100.00
47522;BME280;32291;52.010;4.446;2023-11-19T00:19:12;77649.56;;;-144.67;100.00
47522;BME280;32291;52.010;4.446;2023-11-19T00:20:20;77636.72;;;-144.67;100.00
47522;BME280;32291;52.010;4.446;2023-11-19T00:21:29;77636.72;;;-144.67;100.00
47522;BME280;32291;52.010;4.446;2023-11-19T00:22:36;77630.31;;;-144.67;100.00
47522;BME280;32291;52.010;4.446;2023-11-19T00:23:38;77632.44;;;-144.67;100.00
47522;BME280;32291;52.010;4.446;2023-11-19T00:24:45;77628.16;;;-144.67;100.00
47522;BME280;32291;52.010;4.446;2023-11-19T00:25:52;77638.88;;;-144.67;100.00
47522;BME280;32291;52.010;4.446;2023-11-19T00:26:59;77628.16;;;-144.67;100.00
47522;BME280;32291;52.010;4.446;2023-11-19T00:28:01;77623.88;;;-144.67;100.00
47522;BME280;32291;52.010;4.446;2023-11-19T00:29:08;77632.44;;;-144.67;100.00
47522;BME280;32291;52.010;4.446;2023-11-19T00:30:15;77634.59;;;-144.67;100.00
47522;BME280;32291;52.010;4.446;2023-11-19T00:31:22;77645.28;;;-144.67;100.00
47522;BME280;32291;52.010;4.446;2023-11-19T00:32:28;77645.28;;;-144.67;100.00
47522;BME280;32291;52.010;4.446;2023-11-19T00:33:36;77658.13;;;-144.67;100.00
47522;BME280;32291;52.010;4.446;2023-11-19T00:34:39;77656.00;;;-144.67;100.00
47522;BME280;32291;52.010;4.446;2023-11-19T00:35:46;77660.28;;;-144.67;100.00
47522;BME280;32291;52.010;4.446;2023-11-19T00:36:52;77645.28;;;-144.67;100.00
47522;BME280;32291;52.010;4.446;2023-11-19T00:38:01;77649.56;;;-144.67;100.00
47522;BME280;32291;52.010;4.446;2023-11-19T00:39:09;77649.56;;;-144.67;100.00
47522;BME280;32291;52.010;4.446;2023-11-19T00:40:16;77662.41;;;-144.67;100.00
47522;BME280;32291;52.010;4.446;2023-11-19T00:41:24;77653.84;;;-144.67;100.00
47522;BME280;32291;52.010;4.446;2023-11-19T00:42:32;77653.84;;;-144.67;100.00
47522;BME280;32291;52.010;4.446;2023-11-19T00:43:38;77651.72;;;-144.67;100.00
47522;BME280;32291;52.010;4.446;2023-11-19T00:44:40;77658.13;;;-144.67;100.00
47522;BME280;32291;52.010;4.446;2023-11-19T00:45:48;77645.28;;;-144.67;100.00
47522;BME280;32291;52.010;4.446;2023-11-19T00:46:57;77645.28;;;-144.67;100.00
47522;BME280;32291;52.010;4.446;2023-11-19T00:48:05;77651.72;;;-144.67;100.00
47522;BME280;32291;52.010;4.446;2023-11-19T00:49:07;77645.28;;;-144.67;100.00
47522;BME280;32291;52.010;4.446;2023-11-19T00:50:13;77645.28;;;-144.67;100.00
47522;BME280;32291;52.010;4.446;2023-11-19T00:51:20;77645.28;;;-144.67;100.00
47522;BME280;32291;52.010;4.446;2023-11-19T00:52:22;77645.28;;;-144.67;100.00
47522;BME280;32291;52.010;4.446;2023-11-19T00:53:24;77628.16;;;-144.67;100.00
47522;BME280;32291;52.010;4.446;2023-11-19T00:54:32;77630.31;;;-144.67;100.00
47522;BME280;32291;52.010;4.446;2023-11-19T00:55:39;77632.44;;;-144.67;100.00
47522;BME280;32291;52.010;4.446;2023-11-19T00:56:45;77632.44;;;-144.67;100.00
47522;BME280;32291;52.010;4.446;2023-11-19T00:57:52;77641.00;;;-144.67;100.00
47522;BME280;32291;52.010;4.446;2023-11-19T00:58:59;77636.72;;;-144.67;100.00
47522;BME280;32291;52.010;4.446;2023-11-19T01:00:02;77634.59;;;-144.67;100.00
47522;BME280;32291;52.010;4.446;2023-11-19T01:01:15;77636.72;;;-144.67;100.00
47522;BME280;32291;52.010;4.446;2023-11-19T01:02:22;77632.44;;;-144.67;100.00
47522;BME280;32291;52.010;4.446;2023-11-19T01:03:24;77628.16;;;-144.67;100.00
47522;BME280;32291;52.010;4.446;2023-11-19T01:04:26;77632.44;;;-144.67;100.00
47522;BME280;32291;52.010;4.446;2023-11-19T01:05:28;77641.00;;;-144.67;100.00
47522;BME280;32291;52.010;4.446;2023-11-19T01:06:35;77641.00;;;-144.67;100.00
47522;BME280;32291;52.010;4.446;2023-11-19T01:07:41;77632.44;;;-144.67;100.00
47522;BME280;32291;52.010;4.446;2023-11-19T01:08:48;77636.72;;;-144.67;100.00
47522;BME280;32291;52.010;4.446;2023-11-19T01:09:55;77641.00;;;-144.67;100.00
47522;BME280;32291;52.010;4.446;2023-11-19T01:11:02;77645.28;;;-144.67;100.00
47522;BME280;32291;52.010;4.446;2023-11-19T01:12:09;77643.16;;;-144.67;100.00
47522;BME280;32291;52.010;4.446;2023-11-19T01:13:16;77649.56;;;-144.67;100.00
47522;BME280;32291;52.010;4.446;2023-11-19T01:14:18;77658.13;;;-144.67;100.00
47522;BME280;32291;52.010;4.446;2023-11-19T01:15:25;77649.56;;;-144.67;100.00
47522;BME280;32291;52.010;4.446;2023-11-19T01:16:32;77658.13;;;-144.67;100.00
47522;BME280;32291;52.010;4.446;2023-11-19T01:17:39;77662.41;;;-144.67;100.00
47522;BME280;32291;52.010;4.446;2023-11-19T01:18:41;77649.56;;;-144.67;100.00
47522;BME280;32291;52.010;4.446;2023-11-19T01:19:43;77666.69;;;-144.67;100.00
47522;BME280;32291;52.010;4.446;2023-11-19T01:20:50;77649.56;;;-144.67;100.00
47522;BME280;32291;52.010;4.446;2023-11-19T01:21:57;77662.41;;;-144.67;100.00
47522;BME280;32291;52.010;4.446;2023-11-19T01:23:03;77653.84;;;-144.67;100.00
47522;BME280;32291;52.010;4.446;2023-11-19T01:24:10;77662.41;;;-144.67;100.00
47522;BME280;32291;52.010;4.446;2023-11-19T01:25:19;77670.97;;;-144.67;100.00
47522;BME280;32291;52.010;4.446;2023-11-19T01:26:26;77662.41;;;-144.67;100.00
47522;BME280;32291;52.010;4.446;2023-11-19T01:27:33;77675.25;;;-144.67;100.00
47522;BME280;32291;52.010;4.446;2023-11-19T01:28:41;77666.69;;;-144.67;100.00
47522;BME280;32291;52.010;4.446;2023-11-19T01:29:51;77673.13;;;-144.67;100.00
47522;BME280;32291;52.010;4.446;2023-11-19T01:30:57;77670.97;;;-144.67;100.00
47522;BME280;32291;52.010;4.446;2023-11-19T01:32:04;77677.41;;;-144.67;100.00
47522;BME280;32291;52.010;4.446;2023-11-19T01:33:07;77675.25;;;-144.67;100.00
47522;BME280;32291;52.010;4.446;2023-11-19T01:34:14;77683.81;;;-144.67;100.00
47522;BME280;32291;52.010;4.446;2023-11-19T01:35:20;77679.53;;;-144.67;100.00
47522;BME280;32291;52.010;4.446;2023-11-19T01:36:29;77692.38;;;-144.67;100.00
47522;BME280;32291;52.010;4.446;2023-11-19T01:37:36;77688.09;;;-144.67;100.00
47522;BME280;32291;52.010;4.446;2023-11-19T01:38:43;77685.97;;;-144.67;100.00
47522;BME280;32291;52.010;4.446;2023-11-19T01:39:50;77677.41;;;-144.67;100.00
47522;BME280;32291;52.010;4.446;2023-11-19T01:40:57;77681.69;;;-144.67;100.00
47522;BME280;32291;52.010;4.446;2023-11-19T01:42:04;77690.25;;;-144.67;100.00
47522;BME280;32291;52.010;4.446;2023-11-19T01:43:11;77692.38;;;-144.67;100.00
47522;BME280;32291;52.010;4.446;2023-11-19T01:44:15;77696.66;;;-144.67;100.00
47522;BME280;32291;52.010;4.446;2023-11-19T01:45:28;77688.09;;;-144.67;100.00
47522;BME280;32291;52.010;4.446;2023-11-19T01:46:36;77709.50;;;-144.67;100.00
47522;BME280;32291;52.010;4.446;2023-11-19T01:47:43;77696.66;;;-144.67;100.00
47522;BME280;32291;52.010;4.446;2023-11-19T01:48:50;77696.66;;;-144.67;100.00
47522;BME280;32291;52.010;4.446;2023-11-19T01:49:52;77692.38;;;-144.67;100.00
47522;BME280;32291;52.010;4.446;2023-11-19T01:51:00;77688.09;;;-144.67;100.00
47522;BME280;32291;52.010;4.446;2023-11-19T01:52:08;77700.94;;;-144.67;100.00
47522;BME280;32291;52.010;4.446;2023-11-19T01:53:14;77700.94;;;-144.67;100.00
47522;BME280;32291;52.010;4.446;2023-11-19T01:54:22;77692.38;;;-144.67;100.00
47522;BME280;32291;52.010;4.446;2023-11-19T01:55:29;77696.66;;;-144.67;100.00
47522;BME280;32291;52.010;4.446;2023-11-19T01:56:38;77700.94;;;-144.67;100.00
47522;BME280;32291;52.010;4.446;2023-11-19T01:57:50;77709.50;;;-144.67;100.00
47522;BME280;32291;52.010;4.446;2023-11-19T01:58:57;77709.50;;;-144.67;100.00
47522;BME280;32291;52.010;4.446;2023-11-19T02:00:07;77722.34;;;-144.67;100.00
47522;BME280;32291;52.010;4.446;2023-11-19T02:01:18;77722.34;;;-144.67;100.00
47522;BME280;32291;52.010;4.446;2023-11-19T02:02:20;77715.94;;;-144.67;100.00
47522;BME280;32291;52.010;4.446;2023-11-19T02:03:27;77720.22;;;-144.67;100.00
47522;BME280;32291;52.010;4.446;2023-11-19T02:04:35;77726.63;;;-144.67;100.00
47522;BME280;32291;52.010;4.446;2023-11-19T02:05:42;77733.06;;;-144.67;100.00
47522;BME280;32291;52.010;4.446;2023-11-19T02:06:54;77739.47;;;-144.67;100.00
47522;BME280;32291;52.010;4.446;2023-11-19T02:08:03;77735.19;;;-144.67;100.00
47522;BME280;32291;52.010;4.446;2023-11-19T02:09:10;77735.19;;;-144.67;100.00
47522;BME280;32291;52.010;4.446;2023-11-19T02:10:12;77730.91;;;-144.67;100.00
47522;BME280;32291;52.010;4.446;2023-11-19T02:11:21;77748.03;;;-144.67;100.00
47522;BME280;32291;52.010;4.446;2023-11-19T02:12:28;77743.75;;;-144.67;100.00
47522;BME280;32291;52.010;4.446;2023-11-19T02:13:38;77743.75;;;-144.67;100.00
47522;BME280;32291;52.010;4.446;2023-11-19T02:14:44;77737.34;;;-144.67;100.00
47522;BME280;32291;52.010;4.446;2023-11-19T02:15:51;77739.47;;;-144.67;100.00
47522;BME280;32291;52.010;4.446;2023-11-19T02:16:58;77745.91;;;-144.67;100.00
47522;BME280;32291;52.010;4.446;2023-11-19T02:18:24;77735.19;;;-144.67;100.00
47522;BME280;32291;52.010;4.446;2023-11-19T02:19:34;77739.47;;;-144.67;100.00
47522;BME280;32291;52.010;4.446;2023-11-19T02:20:41;77735.19;;;-144.67;100.00
47522;BME280;32291;52.010;4.446;2023-11-19T02:21:48;77741.63;;;-144.67;100.00
47522;BME280;32291;52.010;4.446;2023-11-19T02:22:50;77741.63;;;-144.67;100.00
47522;BME280;32291;52.010;4.446;2023-11-19T02:23:57;77756.59;;;-144.67;100.00
47522;BME280;32291;52.010;4.446;2023-11-19T02:25:08;77739.47;;;-144.67;100.00
47522;BME280;32291;52.010;4.446;2023-11-19T02:26:52;77745.91;;;-144.67;100.00
47522;BME280;32291;52.010;4.446;2023-11-19T02:28:05;77739.47;;;-144.67;100.00
47522;BME280;32291;52.010;4.446;2023-11-19T02:29:12;77743.75;;;-144.67;100.00
47522;BME280;32291;52.010;4.446;2023-11-19T02:30:19;77752.31;;;-144.67;100.00
47522;BME280;32291;52.010;4.446;2023-11-19T02:31:26;77752.31;;;-144.67;100.00
47522;BME280;32291;52.010;4.446;2023-11-19T02:32:29;77748.03;;;-144.67;100.00
47522;BME280;32291;52.010;4.446;2023-11-19T02:33:38;77735.19;;;-144.67;100.00
47522;BME280;32291;52.010;4.446;2023-11-19T02:34:45;77743.75;;;-144.67;100.00
47522;BME280;32291;52.010;4.446;2023-11-19T02:35:51;77739.47;;;-144.67;100.00
47522;BME280;32291;52.010;4.446;2023-11-19T02:36:54;77748.03;;;-144.67;100.00
47522;BME280;32291;52.010;4.446;2023-11-19T02:38:01;77748.03;;;-144.67;100.00
47522;BME280;32291;52.010;4.446;2023-11-19T02:39:10;77743.75;;;-144.67;100.00
47522;BME280;32291;52.010;4.446;2023-11-19T02:40:18;77743.75;;;-144.67;100.00
47522;BME280;32291;52.010;4.446;2023-11-19T02:41:25;77748.03;;;-144.67;100.00
47522;BME280;32291;52.010;4.446;2023-11-19T02:42:32;77760.88;;;-144.67;100.00
47522;BME280;32291;52.010;4.446;2023-11-19T02:43:39;77760.88;;;-144.67;100.00
47522;BME280;32291;52.010;4.446;2023-11-19T02:44:46;77763.03;;;-144.67;100.00
47522;BME280;32291;52.010;4.446;2023-11-19T02:45:52;77758.75;;;-144.67;100.00
47522;BME280;32291;52.010;4.446;2023-11-19T02:47:02;77765.16;;;-144.67;100.00
47522;BME280;32291;52.010;4.446;2023-11-19T02:48:05;77756.59;;;-144.67;100.00
47522;BME280;32291;52.010;4.446;2023-11-19T02:49:08;77750.19;;;-144.67;100.00
47522;BME280;32291;52.010;4.446;2023-11-19T02:50:12;77743.75;;;-144.67;100.00
47522;BME280;32291;52.010;4.446;2023-11-19T02:51:21;77748.03;;;-144.67;100.00
47522;BME280;32291;52.010;4.446;2023-11-19T02:52:28;77760.88;;;-144.67;100.00
47522;BME280;32291;52.010;4.446;2023-11-19T02:53:30;77752.31;;;-144.67;100.00
47522;BME280;32291;52.010;4.446;2023-11-19T02:54:33;77767.31;;;-144.67;100.00
47522;BME280;32291;52.010;4.446;2023-11-19T02:55:41;77769.44;;;-144.67;100.00
47522;BME280;32291;52.010;4.446;2023-11-19T02:56:54;77775.88;;;-144.67;100.00
47522;BME280;32291;52.010;4.446;2023-11-19T02:58:01;77773.72;;;-144.67;100.00
47522;BME280;32291;52.010;4.446;2023-11-19T02:59:11;77773.72;;;-144.67;100.00
47522;BME280;32291;52.010;4.446;2023-11-19T03:00:33;77769.44;;;-144.67;100.00
47522;BME280;32291;52.010;4.446;2023-11-19T03:01:48;77782.28;;;-144.67;100.00
47522;BME280;32291;52.010;4.446;2023-11-19T03:02:56;77767.31;;;-144.67;100.00
47522;BME280;32291;52.010;4.446;2023-11-19T03:04:06;77773.72;;;-144.67;100.00
47522;BME280;32291;52.010;4.446;2023-11-19T03:05:16;77771.59;;;-144.67;100.00
47522;BME280;32291;52.010;4.446;2023-11-19T03:06:24;77763.03;;;-144.67;100.00
47522;BME280;32291;52.010;4.446;2023-11-19T03:07:26;77760.88;;;-144.67;100.00
47522;BME280;32291;52.010;4.446;2023-11-19T03:08:36;77767.31;;;-144.67;100.00
47522;BME280;32291;52.010;4.446;2023-11-19T03:09:42;77784.44;;;-144.67;100.00
47522;BME280;32291;52.010;4.446;2023-11-19T03:10:50;77782.28;;;-144.67;100.00
47522;BME280;32291;52.010;4.446;2023-11-19T03:11:52;77782.28;;;-144.67;100.00
47522;BME280;32291;52.010;4.446;2023-11-19T03:12:59;77778.00;;;-144.67;100.00
47522;BME280;32291;52.010;4.446;2023-11-19T03:14:07;77773.72;;;-144.67;100.00
47522;BME280;32291;52.010;4.446;2023-11-19T03:15:14;77784.44;;;-144.67;100.00
47522;BME280;32291;52.010;4.446;2023-11-19T03:16:16;77782.28;;;-144.67;100.00
47522;BME280;32291;52.010;4.446;2023-11-19T03:17:23;77782.28;;;-144.67;100.00
47522;BME280;32291;52.010;4.446;2023-11-19T03:18:26;77778.00;;;-144.67;100.00
47522;BME280;32291;52.010;4.446;2023-11-19T03:19:33;77769.44;;;-144.67;100.00
47522;BME280;32291;52.010;4.446;2023-11-19T03:20:40;77765.16;;;-144.67;100.00
47522;BME280;32291;52.010;4.446;2023-11-19T03:21:47;77745.91;;;-144.67;100.00
47522;BME280;32291;52.010;4.446;2023-11-19T03:22:49;77752.31;;;-144.67;100.00
47522;BME280;32291;52.010;4.446;2023-11-19T03:23:53;77760.88;;;-144.67;100.00
47522;BME280;32291;52.010;4.446;2023-11-19T03:25:00;77750.19;;;-144.67;100.00
47522;BME280;32291;52.010;4.446;2023-11-19T03:26:07;77765.16;;;-144.67;100.00
47522;BME280;32291;52.010;4.446;2023-11-19T03:27:15;77760.88;;;-144.67;100.00
47522;BME280;32291;52.010;4.446;2023-11-19T03:28:22;77769.44;;;-144.67;100.00
47522;BME280;32291;52.010;4.446;2023-11-19T03:29:29;77778.00;;;-144.67;100.00
47522;BME280;32291;52.010;4.446;2023-11-19T03:30:36;77758.75;;;-144.67;100.00
47522;BME280;32291;52.010;4.446;2023-11-19T03:31:43;77769.44;;;-144.67;100.00
47522;BME280;32291;52.010;4.446;2023-11-19T03:32:50;77782.28;;;-144.67;100.00
47522;BME280;32291;52.010;4.446;2023-11-19T03:33:52;77786.56;;;-144.67;100.00
47522;BME280;32291;52.010;4.446;2023-11-19T03:34:59;77782.28;;;-144.67;100.00
47522;BME280;32291;52.010;4.446;2023-11-19T03:36:07;77778.00;;;-144.67;100.00
47522;BME280;32291;52.010;4.446;2023-11-19T03:37:15;77778.00;;;-144.67;100.00
47522;BME280;32291;52.010;4.446;2023-11-19T03:38:24;77778.00;;;-144.67;100.00
47522;BME280;32291;52.010;4.446;2023-11-19T03:39:31;77782.28;;;-144.67;100.00
47522;BME280;32291;52.010;4.446;2023-11-19T03:40:33;77782.28;;;-144.67;100.00
47522;BME280;32291;52.010;4.446;2023-11-19T03:41:40;77773.72;;;-144.67;100.00
47522;BME280;32291;52.010;4.446;2023-11-19T03:42:47;77788.72;;;-144.67;100.00
47522;BME280;32291;52.010;4.446;2023-11-19T03:43:49;77782.28;;;-144.67;100.00
47522;BME280;32291;52.010;4.446;2023-11-19T03:44:56;77797.28;;;-144.67;100.00
47522;BME280;32291;52.010;4.446;2023-11-19T03:46:03;77795.13;;;-144.67;100.00
47522;BME280;32291;52.010;4.446;2023-11-19T03:47:11;77799.41;;;-144.67;100.00
47522;BME280;32291;52.010;4.446;2023-11-19T03:48:14;77799.41;;;-144.67;100.00
47522;BME280;32291;52.010;4.446;2023-11-19T03:49:25;77799.41;;;-144.67;100.00
47522;BME280;32291;52.010;4.446;2023-11-19T03:50:32;77795.13;;;-144.67;100.00
47522;BME280;32291;52.010;4.446;2023-11-19T03:51:38;77790.84;;;-144.67;100.00
47522;BME280;32291;52.010;4.446;2023-11-19T03:52:47;77780.16;;;-144.67;100.00
47522;BME280;32291;52.010;4.446;2023-11-19T03:53:53;77782.28;;;-144.67;100.00
47522;BME280;32291;52.010;4.446;2023-11-19T03:54:56;77793.00;;;-144.67;100.00
47522;BME280;32291;52.010;4.446;2023-11-19T03:56:06;77803.69;;;-144.67;100.00
47522;BME280;32291;52.010;4.446;2023-11-19T03:57:08;77788.72;;;-144.67;100.00
47522;BME280;32291;52.010;4.446;2023-11-19T03:58:17;77795.13;;;-144.67;100.00
47522;BME280;32291;52.010;4.446;2023-11-19T03:59:23;77799.41;;;-144.67;100.00
47522;BME280;32291;52.010;4.446;2023-11-19T04:00:30;77799.41;;;-144.67;100.00
47522;BME280;32291;52.010;4.446;2023-11-19T04:01:37;77801.56;;;-144.67;100.00
47522;BME280;32291;52.010;4.446;2023-11-19T04:02:40;77799.41;;;-144.67;100.00
47522;BME280;32291;52.010;4.446;2023-11-19T04:03:47;77807.97;;;-144.67;100.00
47522;BME280;32291;52.010;4.446;2023-11-19T04:04:54;77801.56;;;-144.67;100.00
47522;BME280;32291;52.010;4.446;2023-11-19T04:06:02;77812.25;;;-144.67;100.00
47522;BME280;32291;52.010;4.446;2023-11-19T04:07:09;77807.97;;;-144.67;100.00
47522;BME280;32291;52.010;4.446;2023-11-19T04:08:11;77812.25;;;-144.67;100.00
47522;BME280;32291;52.010;4.446;2023-11-19T04:09:17;77807.97;;;-144.67;100.00
47522;BME280;32291;52.010;4.446;2023-11-19T04:10:24;77816.53;;;-144.67;100.00
47522;BME280;32291;52.010;4.446;2023-11-19T04:11:31;77807.97;;;-144.67;100.00
47522;BME280;32291;52.010;4.446;2023-11-19T04:12:39;77814.41;;;-144.67;100.00
47522;BME280;32291;52.010;4.446;2023-11-19T04:13:46;77816.53;;;-144.67;100.00
47522;BME280;32291;52.010;4.446;2023-11-19T04:14:47;77812.25;;;-144.67;100.00
47522;BME280;32291;52.010;4.446;2023-11-19T04:15:54;77805.84;;;-144.67;100.00
47522;BME280;32291;52.010;4.446;2023-11-19T04:16:56;77803.69;;;-144.67;100.00
47522;BME280;32291;52.010;4.446;2023-11-19T04:18:03;77803.69;;;-144.67;100.00
47522;BME280;32291;52.010;4.446;2023-11-19T04:19:05;77807.97;;;-144.67;100.00
47522;BME280;32291;52.010;4.446;2023-11-19T04:20:09;77812.25;;;-144.67;100.00
47522;BME280;32291;52.010;4.446;2023-11-19T04:21:19;77814.41;;;-144.67;100.00
47522;BME280;32291;52.010;4.446;2023-11-19T04:22:26;77816.53;;;-144.67;100.00
47522;BME280;32291;52.010;4.446;2023-11-19T04:23:28;77807.97;;;-144.67;100.00
47522;BME280;32291;52.010;4.446;2023-11-19T04:24:30;77807.97;;;-144.67;100.00
47522;BME280;32291;52.010;4.446;2023-11-19T04:25:32;77801.56;;;-144.67;100.00
47522;BME280;32291;52.010;4.446;2023-11-19T04:26:43;77803.69;;;-144.67;100.00
47522;BME280;32291;52.010;4.446;2023-11-19T04:27:51;77820.84;;;-144.67;100.00
47522;BME280;32291;52.010;4.446;2023-11-19T04:28:58;77812.25;;;-144.67;100.00
47522;BME280;32291;52.010;4.446;2023-11-19T04:30:06;77807.97;;;-144.67;100.00
47522;BME280;32291;52.010;4.446;2023-11-19T04:31:17;77807.97;;;-144.67;100.00
47522;BME280;32291;52.010;4.446;2023-11-19T04:32:24;77807.97;;;-144.67;100.00
47522;BME280;32291;52.010;4.446;2023-11-19T04:33:33;77812.25;;;-144.67;100.00
47522;BME280;32291;52.010;4.446;2023-11-19T04:34:35;77807.97;;;-144.67;100.00
47522;BME280;32291;52.010;4.446;2023-11-19T04:35:43;77810.13;;;-144.67;100.00
47522;BME280;32291;52.010;4.446;2023-11-19T04:36:49;77810.13;;;-144.67;100.00
47522;BME280;32291;52.010;4.446;2023-11-19T04:37:56;77812.25;;;-144.67;100.00
47522;BME280;32291;52.010;4.446;2023-11-19T04:39:04;77814.41;;;-144.67;100.00
47522;BME280;32291;52.010;4.446;2023-11-19T04:40:29;77812.25;;;-144.67;100.00
47522;BME280;32291;52.010;4.446;2023-11-19T04:41:36;77807.97;;;-144.67;100.00
47522;BME280;32291;52.010;4.446;2023-11-19T04:42:43;77820.84;;;-144.67;100.00
47522;BME280;32291;52.010;4.446;2023-11-19T04:43:49;77820.84;;;-144.67;100.00
47522;BME280;32291;52.010;4.446;2023-11-19T04:44:51;77822.97;;;-144.67;100.00
47522;BME280;32291;52.010;4.446;2023-11-19T04:45:59;77820.84;;;-144.67;100.00
47522;BME280;32291;52.010;4.446;2023-11-19T04:47:00;77816.53;;;-144.67;100.00
47522;BME280;32291;52.010;4.446;2023-11-19T04:48:03;77816.53;;;-144.67;100.00
47522;BME280;32291;52.010;4.446;2023-11-19T04:49:10;77846.50;;;-144.67;100.00
47522;BME280;32291;52.010;4.446;2023-11-19T04:50:20;77805.84;;;-144.67;100.00
47522;BME280;32291;52.010;4.446;2023-11-19T04:51:23;77837.97;;;-144.67;100.00
47522;BME280;32291;52.010;4.446;2023-11-19T04:52:30;77820.84;;;-144.67;100.00
47522;BME280;32291;52.010;4.446;2023-11-19T04:53:32;77818.69;;;-144.67;100.00
47522;BME280;32291;52.010;4.446;2023-11-19T04:54:43;77816.53;;;-144.67;100.00
47522;BME280;32291;52.010;4.446;2023-11-19T04:55:50;77820.84;;;-144.67;100.00
47522;BME280;32291;52.010;4.446;2023-11-19T04:56:56;77827.25;;;-144.67;100.00
47522;BME280;32291;52.010;4.446;2023-11-19T04:58:03;77812.25;;;-144.67;100.00
47522;BME280;32291;52.010;4.446;2023-11-19T04:59:10;77812.25;;;-144.67;100.00
47522;BME280;32291;52.010;4.446;2023-11-19T05:00:17;77814.41;;;-144.67;100.00
47522;BME280;32291;52.010;4.446;2023-11-19T05:01:19;77835.81;;;-144.67;100.00
47522;BME280;32291;52.010;4.446;2023-11-19T05:02:26;77827.25;;;-144.67;100.00
47522;BME280;32291;52.010;4.446;2023-11-19T05:03:32;77827.25;;;-144.67;100.00
47522;BME280;32291;52.010;4.446;2023-11-19T05:04:43;77822.97;;;-144.67;100.00
47522;BME280;32291;52.010;4.446;2023-11-19T05:05:53;77833.66;;;-144.67;100.00
47522;BME280;32291;52.010;4.446;2023-11-19T05:06:55;77833.66;;;-144.67;100.00
47522;BME280;32291;52.010;4.446;2023-11-19T05:08:02;77850.81;;;-144.67;100.00
47522;BME280;32291;52.010;4.446;2023-11-19T05:09:09;77840.09;;;-144.67;100.00
47522;BME280;32291;52.010;4.446;2023-11-19T05:10:18;77861.50;;;-144.67;100.00
47522;BME280;32291;52.010;4.446;2023-11-19T05:11:25;77837.97;;;-144.67;100.00
47522;BME280;32291;52.010;4.446;2023-11-19T05:12:32;77844.38;;;-144.67;100.00
47522;BME280;32291;52.010;4.446;2023-11-19T05:13:38;77857.22;;;-144.67;100.00
47522;BME280;32291;52.010;4.446;2023-11-19T05:14:40;77855.09;;;-144.67;100.00
47522;BME280;32291;52.010;4.446;2023-11-19T05:15:54;77855.09;;;-144.67;100.00
47522;BME280;32291;52.010;4.446;2023-11-19T05:17:01;77855.09;;;-144.67;100.00
47522;BME280;32291;52.010;4.446;2023-11-19T05:18:03;77848.66;;;-144.67;100.00
47522;BME280;32291;52.010;4.446;2023-11-19T05:19:11;77855.09;;;-144.67;100.00
47522;BME280;32291;52.010;4.446;2023-11-19T05:20:18;77861.50;;;-144.67;100.00
47522;BME280;32291;52.010;4.446;2023-11-19T05:21:20;77855.09;;;-144.67;100.00
47522;BME280;32291;52.010;4.446;2023-11-19T05:22:27;77850.81;;;-144.67;100.00
47522;BME280;32291;52.010;4.446;2023-11-19T05:23:34;77842.22;;;-144.67;100.00
47522;BME280;32291;52.010;4.446;2023-11-19T05:24:36;77842.22;;;-144.67;100.00
47522;BME280;32291;52.010;4.446;2023-11-19T05:25:43;77842.22;;;-144.67;100.00
47522;BME280;32291;52.010;4.446;2023-11-19T05:26:50;77833.66;;;-144.67;100.00
47522;BME280;32291;52.010;4.446;2023-11-19T05:27:54;77840.09;;;-144.67;100.00
47522;BME280;32291;52.010;4.446;2023-11-19T05:29:00;77825.09;;;-144.67;100.00
47522;BME280;32291;52.010;4.446;2023-11-19T05:30:05;77835.81;;;-144.67;100.00
47522;BME280;32291;52.010;4.446;2023-11-19T05:31:10;77812.25;;;-144.67;100.00
47522;BME280;32291;52.010;4.446;2023-11-19T05:32:17;77827.25;;;-144.67;100.00
47522;BME280;32291;52.010;4.446;2023-11-19T05:33:19;77846.50;;;-144.67;100.00
47522;BME280;32291;52.010;4.446;2023-11-19T05:34:27;77846.50;;;-144.67;100.00
47522;BME280;32291;52.010;4.446;2023-11-19T05:35:34;77846.50;;;-144.67;100.00
47522;BME280;32291;52.010;4.446;2023-11-19T05:36:41;77848.66;;;-144.67;100.00
47522;BME280;32291;52.010;4.446;2023-11-19T05:37:43;77846.50;;;-144.67;100.00
47522;BME280;32291;52.010;4.446;2023-11-19T05:38:50;77837.97;;;-144.67;100.00
47522;BME280;32291;52.010;4.446;2023-11-19T05:39:57;77842.22;;;-144.67;100.00